Collison, Illinois
Current Conditions -  °F | °C
As of 10:15 AM on Thursday 30 Oct 2014 (Local Time) from KDNV Reporting Station
Clear Clear  
Wind Chill: 41°   Ceiling: Unl
Heat Index: 45°   Visibility: 10mi
Dew Point: 35°   Wind: 6mph
Humidity: 69%   Direction: 190°S
Pressure: 30.14"   Gusts: NA
Location:  40.23°N, 87.8°W
Report Text: KDNV 301515Z AUTO 19005KT 10SM CLR 07/02 A3014 RMK AO2 T00700016
Loading
Personal Weather Stations






























Interactive Weather Map
Tropical Storm Tracking
New forecast layout! Learn more

10-Day Weather Forecast

Advertisements
Track Severe Weather on mobile